Time;durP1;ratioP1;P1;durP2;ratioP2;P2;SDS_P1;SDS_P2;PMS_P1;PMS_P2;Temp;Humidity;BMP_temperature;BMP_pressure;BME280_temperature;BME280_humidity;BME280_pressure;Samples;Min_cycle;Max_cycle;Signal;HPM_P1;HPM_P2
2022/01/03 00:01:55;;;;;;;;;;;;;;;7.72;59.60;99673.06;4423559;32;19990;-92
2022/01/03 00:04:20;;;;;;;;;;;;;;;7.53;59.59;99670.00;4423761;32;19993;-93
2022/01/03 00:06:45;;;;;;;;;;;;;;;7.57;59.60;99663.88;4424287;32;19994;-92
2022/01/03 00:09:11;;;;;;;;;;;;;;;7.62;59.61;99667.22;4423873;32;19998;-92
2022/01/03 00:11:36;;;;;;;;;;;;;;;7.79;59.61;99671.16;4423945;32;20035;-92
2022/01/03 00:14:01;;;;;;;;;;;;;;;7.61;59.59;99673.28;4424013;32;20013;-92
2022/01/03 00:16:27;;;;;;;;;;;;;;;7.80;59.61;99678.06;4423979;32;20027;-93
2022/01/03 00:18:52;;;;;;;;;;;;;;;7.79;59.61;99674.63;4423844;32;19993;-91
2022/01/03 00:21:18;;;;;;;;;;;;;;;7.61;59.61;99673.28;4423968;32;19982;-93
2022/01/03 00:23:50;;;;;;;;;;;;;;;7.79;59.61;99659.06;4424566;32;20370;-92
2022/01/03 00:26:17;;;;;;;;;;;;;;;7.72;59.61;99669.59;4424596;32;20053;-92
2022/01/03 00:28:54;;;;;;;;;;;;;;;7.94;59.62;99665.66;4424655;32;20291;-93
2022/01/03 00:31:19;;;;;;;;;;;;;;;7.95;59.62;99657.00;4424603;32;20657;-93
2022/01/03 00:33:49;;;;;;;;;;;;;;;7.87;59.62;99657.19;4424215;32;19994;-93
2022/01/03 00:36:14;;;;;;;;;;;;;;;7.47;59.60;99652.00;4424121;32;20028;-92
2022/01/03 00:38:39;;;;;;;;;;;;;;;7.52;59.59;99655.34;4423358;32;19985;-91
2022/01/03 00:41:05;;;;;;;;;;;;;;;7.60;59.59;99648.28;4422245;32;19982;-91
2022/01/03 00:43:31;;;;;;;;;;;;;;;7.63;59.61;99647.34;4409857;32;20306;-92
2022/01/03 00:45:56;;;;;;;;;;;;;;;7.60;59.60;99656.06;4422830;32;20006;-92
2022/01/03 00:48:22;;;;;;;;;;;;;;;7.67;59.60;99647.25;4423018;32;20016;-91
2022/01/03 00:50:47;;;;;;;;;;;;;;;7.66;59.60;99650.72;4422634;32;19986;-91
2022/01/03 00:53:12;;;;;;;;;;;;;;;7.66;59.60;99650.72;4422355;32;20250;-91
2022/01/03 00:55:39;;;;;;;;;;;;;;;7.69;59.61;99648.06;4422349;32;20046;-92
2022/01/03 00:58:07;;;;;;;;;;;;;;;7.75;59.61;99651.41;4422651;32;20036;-92
2022/01/03 01:00:36;;;;;;;;;;;;;;;7.80;59.61;99653.00;4423013;32;20066;-92
2022/01/03 01:03:02;;;;;;;;;;;;;;;7.70;59.61;99659.28;4423953;32;19986;-92
2022/01/03 01:05:27;;;;;;;;;;;;;;;7.70;59.60;99652.34;4423319;32;19997;-92
2022/01/03 01:07:54;;;;;;;;;;;;;;;7.63;59.61;99660.31;4423294;32;20010;-93
2022/01/03 01:10:19;;;;;;;;;;;;;;;7.56;59.60;99656.97;4423740;32;21004;-92
2022/01/03 01:12:46;;;;;;;;;;;;;;;7.67;59.60;99654.16;4423051;32;20018;-93
2022/01/03 01:15:11;;;;;;;;;;;;;;;7.93;59.63;99638.03;4422942;32;20002;-90
2022/01/03 01:17:36;;;;;;;;;;;;;;;7.76;59.61;99647.91;4421900;32;20005;-90
2022/01/03 01:20:02;;;;;;;;;;;;;;;8.05;59.62;99650.72;4421627;32;20653;-90
2022/01/03 01:22:28;;;;;;;;;;;;;;;7.94;59.62;99652.69;4421301;32;20025;-89
2022/01/03 01:27:47;;;;;;;;;;;;;;;8.03;59.62;99647.28;4408564;32;20008;-89
2022/01/03 01:27:49;;;;;;;;;;;;;;;8.07;59.63;99648.94;4419484;32;20539;-88
2022/01/03 01:30:15;;;;;;;;;;;;;;;8.22;59.63;99634.75;4421625;32;19977;-88
2022/01/03 01:32:41;;;;;;;;;;;;;;;8.25;59.64;99629.50;4421505;32;20250;-89
2022/01/03 01:35:07;;;;;;;;;;;;;;;8.20;59.63;99627.00;4421207;32;20003;-88
2022/01/03 01:37:32;;;;;;;;;;;;;;;8.26;59.64;99629.44;4408527;32;20013;-88
2022/01/03 01:39:57;;;;;;;;;;;;;;;8.23;59.64;99619.16;4421486;32;19982;-90
2022/01/03 01:42:22;;;;;;;;;;;;;;;8.24;59.63;99620.00;4421312;32;20007;-90
2022/01/03 01:44:49;;;;;;;;;;;;;;;8.22;59.64;99612.25;4420963;32;20043;-89
2022/01/03 01:47:15;;;;;;;;;;;;;;;8.21;59.63;99622.69;4420900;32;20049;-89
2022/01/03 01:49:44;;;;;;;;;;;;;;;8.06;59.62;99610.97;4421032;32;19969;-89
2022/01/03 01:52:10;;;;;;;;;;;;;;;8.11;59.63;99603.91;4420934;32;20053;-88
2022/01/03 01:54:37;;;;;;;;;;;;;;;7.87;59.62;99599.31;4420778;32;20020;-89
2022/01/03 01:57:07;;;;;;;;;;;;;;;7.89;59.62;99610.50;4420910;32;20373;-89
2022/01/03 01:59:40;;;;;;;;;;;;;;;7.66;59.60;99600.66;4420824;32;20783;-89
2022/01/03 02:02:06;;;;;;;;;;;;;;;7.65;59.60;99604.13;4420935;32;19990;-90
2022/01/03 02:04:46;;;;;;;;;;;;;;;7.69;59.60;99608.34;4420548;32;19998;-89
2022/01/03 02:07:44;;;;;;;;;;;;;;;7.58;59.59;99608.59;4422158;32;20008;-89
2022/01/03 02:10:10;;;;;;;;;;;;;;;7.64;59.60;99618.81;4408154;32;19977;-88
2022/01/03 02:12:37;;;;;;;;;;;;;;;7.49;59.60;99613.97;4421039;32;20008;-90
2022/01/03 02:15:02;;;;;;;;;;;;;;;7.63;59.60;99601.59;4422312;32;20085;-91
2022/01/03 02:17:28;;;;;;;;;;;;;;;7.60;59.59;99606.84;4422121;32;20009;-91
2022/01/03 02:20:03;;;;;;;;;;;;;;;7.80;59.61;99605.50;4421708;32;20299;-91
2022/01/03 02:22:28;;;;;;;;;;;;;;;7.78;59.61;99604.69;4421492;32;19995;-90
2022/01/03 02:24:54;;;;;;;;;;;;;;;7.94;59.62;99599.13;4421571;32;20044;-91
2022/01/03 02:27:19;;;;;;;;;;;;;;;7.88;59.62;99595.84;4420917;32;25837;-91
2022/01/03 02:29:44;;;;;;;;;;;;;;;7.94;59.62;99585.31;4420754;32;19978;-90
2022/01/03 02:32:09;;;;;;;;;;;;;;;8.09;59.63;99591.88;4420570;32;22732;-90
2022/01/03 02:34:34;;;;;;;;;;;;;;;8.25;59.63;99586.25;4420675;32;19989;-89
2022/01/03 02:37:00;;;;;;;;;;;;;;;8.47;59.65;99589.19;4420400;32;25875;-91
2022/01/03 02:39:25;;;;;;;;;;;;;;;8.79;59.67;99579.72;4420877;32;20040;-90
2022/01/03 02:41:50;;;;;;;;;;;;;;;8.84;59.67;99573.50;4420860;32;19988;-90
2022/01/03 02:44:19;;;;;;;;;;;;;;;8.98;59.68;99577.44;4421515;32;20036;-93
2022/01/03 02:46:44;;;;;;;;;;;;;;;9.25;59.69;99563.69;4422573;32;20036;-92
2022/01/03 02:49:09;;;;;;;;;;;;;;;9.47;59.70;99562.16;4422097;32;20038;-92
2022/01/03 02:51:34;;;;;;;;;;;;;;;9.67;59.72;99569.31;4422038;32;22968;-93
2022/01/03 02:54:00;;;;;;;;;;;;;;;9.63;59.70;99585.03;4422113;32;19977;-92
2022/01/03 02:56:31;;;;;;;;;;;;;;;9.60;59.71;99570.41;4422037;32;20033;-93
2022/01/03 02:58:58;;;;;;;;;;;;;;;9.63;59.71;99566.84;4421701;32;19974;-91
2022/01/03 03:01:24;;;;;;;;;;;;;;;9.57;59.70;99569.66;4420690;32;19986;-89
2022/01/03 03:03:50;;;;;;;;;;;;;;;9.50;59.71;99571.59;4420273;32;19998;-90
2022/01/03 03:06:15;;;;;;;;;;;;;;;9.49;59.71;99590.69;4420729;32;20048;-90
2022/01/03 03:08:41;;;;;;;;;;;;;;;9.34;59.70;99594.56;4419913;32;21979;-90
2022/01/03 03:11:06;;;;;;;;;;;;;;;9.10;59.68;99587.47;4396201;32;792723;-89
2022/01/03 03:13:32;;;;;;;;;;;;;;;9.23;59.69;99588.84;4421294;32;20147;-92
2022/01/03 03:15:58;;;;;;;;;;;;;;;9.15;59.68;99583.00;4422097;32;20008;-92
2022/01/03 03:18:23;;;;;;;;;;;;;;;9.31;59.69;99581.66;4423579;32;20697;-92
2022/01/03 03:20:49;;;;;;;;;;;;;;;9.60;59.71;99577.34;4423505;32;29712;-92
2022/01/03 03:23:14;;;;;;;;;;;;;;;9.70;59.71;99570.94;4424115;32;20002;-92
2022/01/03 03:25:40;;;;;;;;;;;;;;;9.69;59.71;99566.66;4424191;32;20003;-92
2022/01/03 03:28:09;;;;;;;;;;;;;;;9.53;59.70;99572.34;4422964;32;20032;-90
2022/01/03 03:30:34;;;;;;;;;;;;;;;9.74;59.72;99557.84;4423276;32;19978;-91
2022/01/03 03:33:19;;;;;;;;;;;;;;;9.85;59.72;99563.53;4424282;32;19989;-94
2022/01/03 03:35:44;;;;;;;;;;;;;;;9.83;59.72;99565.31;4425229;32;20002;-94
2022/01/03 03:38:09;;;;;;;;;;;;;;;9.95;59.73;99563.25;4425384;32;19994;-93
2022/01/03 03:40:35;;;;;;;;;;;;;;;9.97;59.73;99569.25;4424733;32;19982;-93
2022/01/03 03:43:00;;;;;;;;;;;;;;;10.11;59.74;99562.69;4424833;32;19990;-94
2022/01/03 03:45:25;;;;;;;;;;;;;;;9.89;59.72;99572.06;4424651;32;20002;-93
2022/01/03 03:47:51;;;;;;;;;;;;;;;9.99;59.73;99567.44;4423869;32;23901;-93
2022/01/03 03:50:16;;;;;;;;;;;;;;;10.12;59.74;99561.78;4424041;32;20007;-92
2022/01/03 03:52:43;;;;;;;;;;;;;;;10.11;59.74;99570.47;4423747;32;20330;-92
2022/01/03 03:55:08;;;;;;;;;;;;;;;10.18;59.75;99571.16;4423829;32;19990;-93
2022/01/03 03:57:33;;;;;;;;;;;;;;;10.24;59.75;99578.78;4421901;32;19989;-89
2022/01/03 03:59:59;;;;;;;;;;;;;;;10.30;59.74;99565.56;4421918;32;19998;-90
2022/01/03 04:02:24;;;;;;;;;;;;;;;10.36;59.75;99561.88;4421806;32;20037;-89
2022/01/03 04:04:49;;;;;;;;;;;;;;;10.33;59.75;99594.06;4422607;32;20236;-91
2022/01/03 04:07:14;;;;;;;;;;;;;;;10.38;59.75;99560.94;4422837;32;20004;-91
2022/01/03 04:09:40;;;;;;;;;;;;;;;10.38;59.75;99544.47;4422387;32;19973;-90
2022/01/03 04:12:05;;;;;;;;;;;;;;;10.56;59.76;99582.87;4425612;32;20025;-94
2022/01/03 04:14:30;;;;;;;;;;;;;;;10.39;59.75;99564.38;4426170;32;20033;-94
2022/01/03 04:16:56;;;;;;;;;;;;;;;10.41;59.76;99560.00;4423131;32;20012;-92
2022/01/03 04:19:21;;;;;;;;;;;;;;;10.32;59.76;99561.16;4423650;32;20039;-93
2022/01/03 04:21:46;;;;;;;;;;;;;;;10.21;59.74;99591.88;4423718;32;23600;-93
2022/01/03 04:24:11;;;;;;;;;;;;;;;10.19;59.75;99579.81;4423886;32;19993;-91
2022/01/03 04:26:37;;;;;;;;;;;;;;;10.36;59.75;99569.69;4423435;32;19982;-92
2022/01/03 04:29:02;;;;;;;;;;;;;;;10.43;59.76;99576.41;4423809;32;20019;-92
2022/01/03 04:31:28;;;;;;;;;;;;;;;10.43;59.75;99572.06;4424004;32;20006;-92
2022/01/03 04:33:54;;;;;;;;;;;;;;;10.39;59.75;99590.41;4423103;32;20011;-92
2022/01/03 04:36:19;;;;;;;;;;;;;;;10.52;59.75;99583.88;4422576;32;28520;-92
2022/01/03 04:38:44;;;;;;;;;;;;;;;10.43;59.76;99582.47;4422672;32;20069;-90
2022/01/03 04:41:11;;;;;;;;;;;;;;;10.53;59.75;99577.78;4421556;32;20021;-90
2022/01/03 04:43:36;;;;;;;;;;;;;;;10.50;59.76;99590.91;4421688;32;20309;-90
2022/01/03 04:46:01;;;;;;;;;;;;;;;10.66;59.77;99579.06;4421836;32;19993;-90
2022/01/03 04:48:26;;;;;;;;;;;;;;;10.48;59.76;99566.69;4421471;32;19981;-90
2022/01/03 04:50:52;;;;;;;;;;;;;;;10.50;59.76;99577.03;4421684;32;21490;-92
2022/01/03 04:53:17;;;;;;;;;;;;;;;10.50;59.76;99562.28;4422963;32;19995;-92
2022/01/03 04:55:42;;;;;;;;;;;;;;;10.32;59.76;99568.94;4423926;32;20430;-93
2022/01/03 04:58:10;;;;;;;;;;;;;;;10.64;59.77;99580.00;4423830;32;20005;-93
2022/01/03 05:00:35;;;;;;;;;;;;;;;10.60;59.76;99571.44;4423995;32;20008;-92
2022/01/03 05:03:00;;;;;;;;;;;;;;;10.60;59.76;99571.44;4422890;32;20334;-92
2022/01/03 05:05:26;;;;;;;;;;;;;;;10.65;59.76;99568.72;4422041;32;19986;-90
2022/01/03 05:07:51;;;;;;;;;;;;;;;10.61;59.76;99583.56;4422177;32;22349;-91
2022/01/03 05:10:16;;;;;;;;;;;;;;;10.72;59.77;99558.00;4422674;32;20020;-92
2022/01/03 05:12:42;;;;;;;;;;;;;;;10.68;59.76;99563.41;4423181;32;19990;-92
2022/01/03 05:15:07;;;;;;;;;;;;;;;10.65;59.77;99566.09;4423263;32;20030;-92
2022/01/03 05:17:32;;;;;;;;;;;;;;;10.57;59.76;99560.31;4422501;32;20001;-91
2022/01/03 05:19:59;;;;;;;;;;;;;;;10.55;59.76;99564.72;4422571;32;20013;-91
2022/01/03 05:22:24;;;;;;;;;;;;;;;10.45;59.76;99559.00;4422785;32;20065;-92
2022/01/03 05:24:49;;;;;;;;;;;;;;;10.46;59.75;99545.06;4423062;32;19989;-92
2022/01/03 05:27:14;;;;;;;;;;;;;;;10.47;59.76;99551.97;4423406;32;19994;-92
2022/01/03 05:29:40;;;;;;;;;;;;;;;10.50;59.76;99551.00;4423051;32;20017;-92
2022/01/03 05:32:05;;;;;;;;;;;;;;;10.47;59.76;99541.56;4422631;32;20001;-91
2022/01/03 05:34:30;;;;;;;;;;;;;;;10.66;59.77;99536.56;4421822;32;19981;-91
2022/01/03 05:36:55;;;;;;;;;;;;;;;10.65;59.77;99543.53;4421697;32;19997;-91
2022/01/03 05:39:21;;;;;;;;;;;;;;;10.59;59.76;99535.91;4421227;32;20002;-89
2022/01/03 05:41:46;;;;;;;;;;;;;;;10.57;59.77;99547.28;4422082;32;20012;-91
2022/01/03 05:44:11;;;;;;;;;;;;;;;10.60;59.76;99540.22;4422177;32;20020;-90
2022/01/03 05:46:36;;;;;;;;;;;;;;;10.66;59.76;99546.97;4421429;32;19993;-92
2022/01/03 05:49:02;;;;;;;;;;;;;;;10.76;59.77;99549.19;4421724;32;20045;-92
2022/01/03 05:51:27;;;;;;;;;;;;;;;10.61;59.76;99541.91;4421899;32;20043;-91
2022/01/03 05:53:55;;;;;;;;;;;;;;;10.87;59.78;99543.56;4421971;32;20032;-91
2022/01/03 05:56:21;;;;;;;;;;;;;;;10.77;59.78;99539.62;4422796;32;19978;-91
2022/01/03 05:58:46;;;;;;;;;;;;;;;10.75;59.77;99547.50;4421604;32;19974;-92
2022/01/03 06:01:11;;;;;;;;;;;;;;;10.81;59.78;99543.81;4421739;32;20338;-91
2022/01/03 06:03:39;;;;;;;;;;;;;;;10.81;59.78;99545.56;4421702;32;20012;-91
2022/01/03 06:08:35;;;;;;;;;;;;;;;10.82;59.77;99552.47;4422001;32;20675;-91
2022/01/03 06:11:01;;;;;;;;;;;;;;;10.88;59.78;99541.81;4421688;32;19994;-91
2022/01/03 06:13:26;;;;;;;;;;;;;;;10.84;59.79;99540.25;4408490;32;20020;-91
2022/01/03 06:15:51;;;;;;;;;;;;;;;10.83;59.78;99544.59;4421286;32;23562;-90
2022/01/03 06:18:16;;;;;;;;;;;;;;;10.81;59.78;99545.56;4421396;32;19989;-90
2022/01/03 06:20:42;;;;;;;;;;;;;;;10.73;59.77;99533.69;4420869;32;20068;-91
2022/01/03 06:23:08;;;;;;;;;;;;;;;10.73;59.77;99530.22;4420894;32;20042;-91
2022/01/03 06:25:33;;;;;;;;;;;;;;;10.86;59.78;99539.28;4420981;32;20309;-91
2022/01/03 06:27:58;;;;;;;;;;;;;;;10.83;59.78;99538.53;4420618;32;20425;-91
2022/01/03 06:30:24;;;;;;;;;;;;;;;10.69;59.78;99547.72;4407932;32;20457;-90
2022/01/03 06:32:49;;;;;;;;;;;;;;;10.75;59.77;99555.31;4420631;32;20039;-91
2022/01/03 06:35:14;;;;;;;;;;;;;;;10.80;59.77;99569.91;4420661;32;20037;-91
2022/01/03 06:37:39;;;;;;;;;;;;;;;10.83;59.77;99575.00;4420413;32;20013;-91
2022/01/03 06:40:06;;;;;;;;;;;;;;;10.82;59.78;99587.16;4420665;32;20010;-90
2022/01/03 06:42:31;;;;;;;;;;;;;;;10.62;59.76;99582.66;4420668;32;20032;-91
2022/01/03 06:44:56;;;;;;;;;;;;;;;10.65;59.76;99566.97;4420422;32;20231;-91
2022/01/03 06:47:22;;;;;;;;;;;;;;;10.69;59.76;99573.75;4420355;32;20037;-89
2022/01/03 06:49:47;;;;;;;;;;;;;;;10.72;59.77;99568.44;4420279;32;20040;-90
2022/01/03 06:52:12;;;;;;;;;;;;;;;10.74;59.77;99571.81;4407959;32;20485;-89
2022/01/03 06:54:37;;;;;;;;;;;;;;;10.91;59.77;99560.81;4422640;32;20033;-93
2022/01/03 06:57:03;;;;;;;;;;;;;;;11.01;59.79;99561.31;4423977;32;20002;-92
2022/01/03 06:59:28;;;;;;;;;;;;;;;11.13;59.79;99539.19;4424029;32;20000;-92
2022/01/03 07:01:53;;;;;;;;;;;;;;;11.21;59.80;99529.31;4424235;32;20662;-93
2022/01/03 07:04:18;;;;;;;;;;;;;;;11.25;59.80;99513.50;4423900;32;20055;-90
2022/01/03 07:06:44;;;;;;;;;;;;;;;11.21;59.79;99517.12;4421488;32;27039;-89
2022/01/03 07:09:09;;;;;;;;;;;;;;;11.20;59.80;99512.00;4423184;32;19993;-89
2022/01/03 07:11:34;;;;;;;;;;;;;;;11.24;59.80;99513.56;4421616;32;23506;-89
2022/01/03 07:19:35;;;;;;;;;;;;;;;11.78;59.83;99505.34;4422417;32;20051;-90
2022/01/03 07:22:04;;;;;;;;;;;;;;;12.03;59.84;99497.34;4422106;32;20440;-89
2022/01/03 07:24:30;;;;;;;;;;;;;;;12.37;59.86;99494.16;4422508;32;19978;-89
2022/01/03 07:26:55;;;;;;;;;;;;;;;12.72;59.88;99515.25;4422308;32;20014;-89
2022/01/03 07:29:20;;;;;;;;;;;;;;;13.04;59.89;99490.31;4422258;32;20024;-90
2022/01/03 07:31:45;;;;;;;;;;;;;;;13.35;59.92;99479.28;4423418;32;20002;-89
2022/01/03 07:34:11;;;;;;;;;;;;;;;13.43;59.93;99475.37;4422903;32;30891;-87
2022/01/03 07:36:36;;;;;;;;;;;;;;;13.68;59.94;99469.81;4423638;32;19978;-89
2022/01/03 07:39:01;;;;;;;;;;;;;;;13.81;59.94;99464.84;4422504;32;20815;-88
2022/01/03 07:41:26;;;;;;;;;;;;;;;13.92;59.94;99477.38;4422215;32;19986;-89
2022/01/03 07:43:51;;;;;;;;;;;;;;;14.00;59.95;99477.84;4422406;32;19999;-90
2022/01/03 07:46:17;;;;;;;;;;;;;;;14.18;59.96;99510.06;4421631;32;26752;-89
2022/01/03 07:48:42;;;;;;;;;;;;;;;14.14;59.96;99485.84;4421638;32;20012;-90
2022/01/03 07:51:07;;;;;;;;;;;;;;;14.30;59.96;99480.66;4421918;32;19998;-88
2022/01/03 07:53:33;;;;;;;;;;;;;;;14.36;59.97;99478.56;4423054;32;20295;-89
2022/01/03 07:55:58;;;;;;;;;;;;;;;14.44;59.97;99496.56;4421785;32;19994;-88
2022/01/03 07:58:24;;;;;;;;;;;;;;;14.50;59.98;99511.09;4421916;32;20032;-88
2022/01/03 08:00:49;;;;;;;;;;;;;;;14.51;59.98;99497.06;4421813;32;20014;-88
2022/01/03 08:03:15;;;;;;;;;;;;;;;14.55;59.98;99512.56;4421285;32;20022;-88
2022/01/03 08:05:40;;;;;;;;;;;;;;;14.75;59.99;99511.50;4421793;32;20319;-87
2022/01/03 08:08:08;;;;;;;;;;;;;;;14.71;59.98;99512.59;4423148;32;20001;-88
2022/01/03 08:10:34;;;;;;;;;;;;;;;14.46;59.98;99514.81;4423251;32;19992;-88
2022/01/03 08:12:59;;;;;;;;;;;;;;;14.63;59.98;99520.00;4421860;32;20021;-88
2022/01/03 08:15:24;;;;;;;;;;;;;;;14.64;59.99;99519.06;4421011;32;26764;-88
2022/01/03 08:17:50;;;;;;;;;;;;;;;14.69;59.98;99514.47;4421752;32;20088;-89
2022/01/03 08:20:15;;;;;;;;;;;;;;;14.64;59.99;99530.41;4421471;32;19981;-88
2022/01/03 08:22:40;;;;;;;;;;;;;;;14.94;60.01;99522.72;4423154;32;19983;-88
2022/01/03 08:25:06;;;;;;;;;;;;;;;14.97;60.00;99537.44;4421765;32;20388;-87
2022/01/03 08:27:31;;;;;;;;;;;;;;;14.78;60.00;99545.41;4421747;32;20002;-89
2022/01/03 08:29:56;;;;;;;;;;;;;;;14.75;59.99;99540.34;4421869;32;20011;-87
2022/01/03 08:32:21;;;;;;;;;;;;;;;14.70;60.00;99532.72;4421641;32;19970;-88
2022/01/03 08:34:47;;;;;;;;;;;;;;;14.79;60.00;99541.84;4421277;32;19993;-88
2022/01/03 08:37:12;;;;;;;;;;;;;;;14.87;60.00;99554.53;4421755;32;20001;-92
2022/01/03 08:39:37;;;;;;;;;;;;;;;14.82;59.99;99531.22;4421133;32;27187;-88
2022/01/03 08:42:02;;;;;;;;;;;;;;;14.78;60.00;99542.78;4421659;32;20321;-87
2022/01/03 08:44:28;;;;;;;;;;;;;;;14.98;60.00;99553.06;4422971;32;19998;-88
2022/01/03 08:46:53;;;;;;;;;;;;;;;14.85;59.99;99552.00;4421226;32;20632;-87
2022/01/03 08:49:18;;;;;;;;;;;;;;;14.86;59.99;99563.34;4438170;32;20480;-87
2022/01/03 08:51:43;;;;;;;;;;;;;;;14.86;59.99;99551.09;4423845;32;19969;-87
2022/01/03 08:54:09;;;;;;;;;;;;;;;14.83;59.99;99558.25;4424025;32;20016;-87
2022/01/03 08:56:34;;;;;;;;;;;;;;;14.75;59.99;99561.28;4423790;32;20040;-86
2022/01/03 08:58:59;;;;;;;;;;;;;;;14.78;60.00;99582.09;4423782;32;20444;-87
2022/01/03 09:01:24;;;;;;;;;;;;;;;14.65;59.99;99576.63;4423452;32;24619;-88
2022/01/03 09:03:50;;;;;;;;;;;;;;;14.64;59.99;99576.69;4410540;32;30953;-88
2022/01/03 09:06:16;;;;;;;;;;;;;;;14.68;59.99;99575.66;4438114;32;20012;-87
2022/01/03 09:08:41;;;;;;;;;;;;;;;14.83;60.00;99584.47;4424115;32;20396;-89
2022/01/03 09:11:08;;;;;;;;;;;;;;;14.65;59.99;99601.97;4423783;32;20005;-88
2022/01/03 09:13:34;;;;;;;;;;;;;;;14.49;59.99;99572.25;4411432;32;20345;-87
2022/01/03 09:16:04;;;;;;;;;;;;;;;14.48;59.98;99595.00;4422981;32;20013;-88
2022/01/03 09:18:30;;;;;;;;;;;;;;;14.32;59.97;99594.03;4424366;32;20038;-87
2022/01/03 09:20:55;;;;;;;;;;;;;;;14.35;59.97;99589.47;4438081;32;19992;-87
2022/01/03 09:23:26;;;;;;;;;;;;;;;14.39;59.97;99595.41;4410752;32;20322;-87
2022/01/03 09:28:56;;;;;;;;;;;;;;;14.20;59.96;99589.41;4437927;32;19999;-87
2022/01/03 09:31:24;;;;;;;;;;;;;;;14.16;59.96;99569.50;4425507;32;19982;-86
2022/01/03 09:33:49;;;;;;;;;;;;;;;13.91;59.95;99575.94;4422896;32;20009;-87
2022/01/03 09:36:14;;;;;;;;;;;;;;;14.11;59.96;99580.22;4436973;32;20555;-87
2022/01/03 09:38:40;;;;;;;;;;;;;;;14.07;59.95;99570.81;4422656;32;20356;-88
2022/01/03 09:41:05;;;;;;;;;;;;;;;14.09;59.96;99561.97;4422851;32;20285;-87
2022/01/03 09:43:33;;;;;;;;;;;;;;;13.91;59.95;99556.78;4437020;32;20006;-88
2022/01/03 09:45:58;;;;;;;;;;;;;;;14.08;59.96;99555.03;4422744;32;20007;-87
2022/01/03 09:48:23;;;;;;;;;;;;;;;14.16;59.96;99556.44;4422255;32;19981;-88
2022/01/03 09:50:49;;;;;;;;;;;;;;;13.97;59.96;99546.88;4422612;32;19997;-88
2022/01/03 09:53:14;;;;;;;;;;;;;;;14.09;59.96;99554.13;4436588;32;24785;-88
2022/01/03 09:55:39;;;;;;;;;;;;;;;13.98;59.95;99560.81;4436171;32;31167;-87
2022/01/03 09:58:04;;;;;;;;;;;;;;;13.95;59.94;99566.19;4423569;32;20016;-87
2022/01/03 10:00:30;;;;;;;;;;;;;;;14.03;59.96;99545.72;4423249;32;19962;-87
2022/01/03 10:02:56;;;;;;;;;;;;;;;14.00;59.95;99546.72;4422823;32;31994;-87
2022/01/03 10:05:22;;;;;;;;;;;;;;;14.04;59.95;99543.03;4423768;32;20023;-87
2022/01/03 10:07:47;;;;;;;;;;;;;;;14.13;59.96;99533.88;4422834;32;19985;-86
2022/01/03 10:10:12;;;;;;;;;;;;;;;14.07;59.96;99544.66;4422608;32;20625;-88
2022/01/03 10:12:38;;;;;;;;;;;;;;;14.13;59.96;99549.56;4422572;32;19997;-87
2022/01/03 10:15:04;;;;;;;;;;;;;;;13.98;59.95;99548.59;4436625;32;20012;-87
2022/01/03 10:17:33;;;;;;;;;;;;;;;14.24;59.96;99546.44;4422717;32;20029;-87
2022/01/03 10:20:00;;;;;;;;;;;;;;;14.14;59.96;99540.81;4423272;32;19980;-86
2022/01/03 10:22:26;;;;;;;;;;;;;;;13.98;59.95;99539.88;4423385;32;20042;-86
2022/01/03 10:24:52;;;;;;;;;;;;;;;14.23;59.97;99548.22;4423168;32;19962;-85
2022/01/03 10:27:17;;;;;;;;;;;;;;;14.16;59.96;99522.41;4423008;32;20018;-85
2022/01/03 10:29:42;;;;;;;;;;;;;;;14.17;59.96;99517.09;4437207;32;19965;-86
2022/01/03 10:32:10;;;;;;;;;;;;;;;14.35;59.98;99510.91;4422995;32;20017;-86
2022/01/03 10:34:35;;;;;;;;;;;;;;;14.42;59.98;99496.56;4410401;32;20479;-87
2022/01/03 10:37:08;;;;;;;;;;;;;;;14.53;59.98;99490.00;4423356;32;20001;-86
2022/01/03 10:39:34;;;;;;;;;;;;;;;14.22;59.96;99496.78;4422860;32;20039;-87
2022/01/03 10:42:32;;;;;;;;;;;;;;;14.21;59.97;99497.72;4423091;32;20368;-85
2022/01/03 10:44:59;;;;;;;;;;;;;;;14.12;59.96;99506.84;4418837;32;20382;-86
2022/01/03 10:47:31;;;;;;;;;;;;;;;14.24;59.96;99507.16;4422735;32;19977;-86
2022/01/03 10:49:57;;;;;;;;;;;;;;;14.38;59.97;99504.69;4422909;32;19993;-86
2022/01/03 10:52:22;;;;;;;;;;;;;;;14.36;59.98;99503.91;4422053;32;20005;-86
2022/01/03 10:55:09;;;;;;;;;;;;;;;14.32;59.97;99505.84;4422572;32;19989;-86
2022/01/03 10:57:44;;;;;;;;;;;;;;;14.23;59.96;99513.34;4430079;32;19969;-86
2022/01/03 11:00:13;;;;;;;;;;;;;;;14.46;59.98;99512.19;4422714;32;19996;-86
2022/01/03 11:02:39;;;;;;;;;;;;;;;14.61;59.98;99514.00;4422770;32;19997;-87
2022/01/03 11:05:10;;;;;;;;;;;;;;;14.77;59.99;99509.66;4436458;32;20015;-86
2022/01/03 11:13:07;;;;;;;;;;;;;;;14.95;60.01;99482.47;4436635;32;20005;-87
2022/01/03 11:15:33;;;;;;;;;;;;;;;14.97;60.01;99482.37;4422441;32;19989;-87
2022/01/03 11:18:08;;;;;;;;;;;;;;;14.93;60.00;99486.94;4422325;32;19995;-87
2022/01/03 11:20:34;;;;;;;;;;;;;;;14.85;60.00;99485.66;4422522;32;19981;-87
2022/01/03 11:22:59;;;;;;;;;;;;;;;14.81;60.00;99492.84;4422151;32;20038;-86
2022/01/03 11:25:30;;;;;;;;;;;;;;;14.78;59.99;99489.53;4422461;32;19997;-87
2022/01/03 11:27:56;;;;;;;;;;;;;;;14.87;60.01;99497.75;4422186;32;20123;-87
2022/01/03 11:30:21;;;;;;;;;;;;;;;15.09;60.02;99505.28;4422282;32;20476;-87
2022/01/03 11:32:48;;;;;;;;;;;;;;;15.15;60.02;99497.13;4422064;32;20048;-86
2022/01/03 11:35:14;;;;;;;;;;;;;;;15.17;60.03;99500.50;4422310;32;20364;-86
2022/01/03 11:37:40;;;;;;;;;;;;;;;15.11;60.02;99489.47;4421149;32;26402;-86
2022/01/03 11:40:06;;;;;;;;;;;;;;;15.11;60.02;99489.47;4424558;32;19981;-87
2022/01/03 11:42:34;;;;;;;;;;;;;;;15.20;60.02;99481.13;4438624;32;20019;-87
2022/01/03 11:44:59;;;;;;;;;;;;;;;14.77;59.99;99478.22;4438612;32;19985;-88
2022/01/03 11:47:27;;;;;;;;;;;;;;;14.54;59.98;99478.59;4424305;32;19989;-86
2022/01/03 11:49:52;;;;;;;;;;;;;;;14.39;59.97;99495.91;4424592;32;19978;-87
2022/01/03 11:52:17;;;;;;;;;;;;;;;14.67;59.99;99501.44;4423896;32;20015;-88
2022/01/03 11:54:43;;;;;;;;;;;;;;;14.49;59.99;99498.94;4424236;32;20342;-88
2022/01/03 11:57:10;;;;;;;;;;;;;;;14.49;59.98;99497.16;4424223;32;19999;-87
2022/01/03 12:05:08;;;;;;;;;;;;;;;14.40;59.97;99513.28;4426236;32;20030;-87
2022/01/03 12:07:33;;;;;;;;;;;;;;;14.60;59.99;99515.78;4423977;32;20772;-88
2022/01/03 12:10:08;;;;;;;;;;;;;;;14.65;59.99;99516.38;4423384;32;36423;-86
2022/01/03 12:12:34;;;;;;;;;;;;;;;14.42;59.98;99501.81;4424456;32;19997;-86
2022/01/03 12:15:01;;;;;;;;;;;;;;;14.41;59.98;99512.38;4424307;32;19996;-87
2022/01/03 12:17:40;;;;;;;;;;;;;;;14.50;59.98;99493.62;4411539;32;20038;-87
2022/01/03 12:20:06;;;;;;;;;;;;;;;14.32;59.97;99486.66;4424042;32;19981;-87
2022/01/03 12:22:34;;;;;;;;;;;;;;;14.14;59.96;99485.84;4438244;32;19997;-86
2022/01/03 12:25:01;;;;;;;;;;;;;;;14.07;59.96;99484.47;4423999;32;19977;-86
2022/01/03 12:27:33;;;;;;;;;;;;;;;14.11;59.96;99481.59;4424214;32;20042;-86
2022/01/03 12:29:59;;;;;;;;;;;;;;;14.02;59.96;99492.53;4424100;32;20136;-87
2022/01/03 12:32:24;;;;;;;;;;;;;;;14.02;59.95;99494.31;4438082;32;20014;-86
2022/01/03 12:35:09;;;;;;;;;;;;;;;13.89;59.95;99495.84;4423689;32;20219;-87
2022/01/03 12:37:37;;;;;;;;;;;;;;;13.89;59.95;99507.16;4438149;32;19994;-87
2022/01/03 12:40:06;;;;;;;;;;;;;;;13.84;59.95;99517.00;4423928;32;20000;-86
2022/01/03 12:42:51;;;;;;;;;;;;;;;13.94;59.95;99514.75;4423999;32;20000;-87
2022/01/03 12:45:16;;;;;;;;;;;;;;;13.81;59.95;99520.63;4438182;32;20026;-86
2022/01/03 12:47:42;;;;;;;;;;;;;;;13.78;59.94;99509.47;4423941;32;19977;-86
2022/01/03 12:50:22;;;;;;;;;;;;;;;13.94;59.95;99517.38;4421967;32;28321;-86
2022/01/03 12:52:48;;;;;;;;;;;;;;;14.07;59.96;99510.63;4423896;32;20014;-86
2022/01/03 12:55:32;;;;;;;;;;;;;;;14.17;59.96;99514.47;4424096;32;19985;-86
2022/01/03 12:57:57;;;;;;;;;;;;;;;14.09;59.96;99514.00;4438389;32;20095;-87
2022/01/03 13:00:38;;;;;;;;;;;;;;;14.04;59.96;99516.88;4437959;32;22501;-86
2022/01/03 13:03:22;;;;;;;;;;;;;;;14.01;59.95;99514.41;4423860;32;20009;-85
2022/01/03 13:06:06;;;;;;;;;;;;;;;14.03;59.96;99509.09;4423926;32;20363;-86
2022/01/03 13:08:31;;;;;;;;;;;;;;;13.92;59.95;99495.69;4424053;32;19996;-86
2022/01/03 13:11:00;;;;;;;;;;;;;;;13.96;59.96;99507.69;4423963;32;19990;-86